Time;durP1;ratioP1;P1;durP2;ratioP2;P2;SDS_P1;SDS_P2;PMS_P1;PMS_P2;Temp;Humidity;BMP_temperature;BMP_pressure;BME280_temperature;BME280_humidity;BME280_pressure;Samples;Min_cycle;Max_cycle;Signal;HPM_P1;HPM_P2
2023/05/04 00:02:55;;;;;;;27.85;4.15;;;;;;;11.49;79.86;101103.69;10477784;28;20039;-70
2023/05/04 00:07:56;;;;;;;7.43;3.92;;;;;;;11.39;79.82;101085.16;10456514;28;20036;-70
2023/05/04 00:12:56;;;;;;;6.88;4.10;;;;;;;11.49;79.60;101094.88;10456307;28;20048;-69
2023/05/04 00:17:57;;;;;;;5.70;3.83;;;;;;;11.40;79.70;101078.84;10470057;28;20119;-71
2023/05/04 00:22:58;;;;;;;5.43;3.67;;;;;;;11.45;79.45;101083.69;10497798;28;20040;-70
2023/05/04 00:27:58;;;;;;;5.88;4.18;;;;;;;11.40;79.02;101080.69;10496156;28;20061;-70
2023/05/04 00:32:59;;;;;;;6.85;3.75;;;;;;;11.30;78.77;101050.66;10496385;28;20041;-70
2023/05/04 00:38:02;;;;;;;6.07;4.00;;;;;;;11.34;78.82;101054.72;10497011;28;20102;-70
2023/05/04 00:43:03;;;;;;;7.30;4.22;;;;;;;11.45;78.69;101062.41;10496252;28;20090;-71
2023/05/04 00:48:05;;;;;;;7.25;4.35;;;;;;;11.51;78.54;101071.59;10497045;28;20549;-70
2023/05/04 00:53:10;;;;;;;7.97;4.25;;;;;;;11.39;78.76;101053.22;10496473;28;20093;-70
2023/05/04 00:58:11;;;;;;;7.28;4.60;;;;;;;11.44;78.24;101060.75;10495035;28;20036;-70
2023/05/04 01:03:12;;;;;;;8.63;4.25;;;;;;;11.35;78.45;101041.25;10495685;28;20136;-70
2023/05/04 01:08:16;;;;;;;8.20;4.43;;;;;;;11.42;78.01;101073.38;10495674;28;20041;-70
2023/05/04 01:13:20;;;;;;;6.95;4.13;;;;;;;11.34;78.55;101060.03;10496004;28;20037;-70
2023/05/04 01:18:22;;;;;;;7.72;4.68;;;;;;;11.17;79.01;101059.06;10495662;28;20472;-69
2023/05/04 01:23:23;;;;;;;10.88;4.75;;;;;;;11.06;79.36;101054.81;10495829;28;20121;-70
2023/05/04 01:28:33;;;;;;;7.53;4.65;;;;;;;10.54;79.85;100982.94;10481869;28;20111;-70
2023/05/04 01:33:36;;;;;;;7.50;4.82;;;;;;;10.86;79.83;101051.50;10454281;28;20040;-70
2023/05/04 01:38:37;;;;;;;7.10;3.90;;;;;;;10.90;79.92;101063.50;10454036;28;20122;-70
2023/05/04 01:43:38;;;;;;;9.93;4.68;;;;;;;10.47;79.76;101008.44;10453966;28;20114;-69
2023/05/04 01:48:39;;;;;;;10.57;5.13;;;;;;;10.77;80.12;101065.69;10454221;28;20128;-70
2023/05/04 01:53:40;;;;;;;8.60;5.13;;;;;;;10.74;80.48;101071.31;10454400;28;20611;-70
2023/05/04 01:58:41;;;;;;;8.60;4.80;;;;;;;10.15;80.48;100974.38;10453885;28;20049;-70
2023/05/04 02:03:41;;;;;;;9.50;5.18;;;;;;;10.59;81.02;101043.56;10453100;28;20064;-70
2023/05/04 02:08:42;;;;;;;6.07;4.30;;;;;;;10.43;80.98;101025.66;10456219;28;20110;-70
2023/05/04 02:13:43;;;;;;;9.27;5.40;;;;;;;10.50;81.49;101038.19;10468554;28;20488;-70
2023/05/04 02:18:45;;;;;;;8.68;5.35;;;;;;;10.20;80.99;100980.06;10452018;28;20504;-71
2023/05/04 02:23:46;;;;;;;9.88;5.18;;;;;;;10.60;81.24;101051.41;10454146;28;20036;-70
2023/05/04 02:28:46;;;;;;;8.57;4.68;;;;;;;10.76;81.31;101050.72;10460622;28;20061;-70
2023/05/04 02:33:50;;;;;;;7.05;4.75;;;;;;;10.89;81.50;101059.16;10459753;28;20037;-70
2023/05/04 02:38:51;;;;;;;7.68;4.80;;;;;;;11.11;81.17;101057.00;10459708;28;20507;-70
2023/05/04 02:43:52;;;;;;;7.20;4.80;;;;;;;11.06;80.24;100982.19;10473335;28;20040;-70
2023/05/04 02:48:53;;;;;;;6.95;4.47;;;;;;;11.30;79.76;100962.91;10489752;28;20064;-70
2023/05/04 02:53:53;;;;;;;10.02;5.05;;;;;;;12.23;78.95;101050.84;10466032;28;20059;-71
2023/05/04 02:58:54;;;;;;;8.57;4.80;;;;;;;12.69;77.78;101061.97;10457518;28;20055;-70
2023/05/04 03:03:55;;;;;;;7.95;5.10;;;;;;;13.15;76.35;101060.50;10457457;28;20041;-71
2023/05/04 03:08:56;;;;;;;8.15;4.95;;;;;;;13.70;75.65;101064.31;10459285;28;20044;-70
2023/05/04 03:13:57;;;;;;;13.35;5.10;;;;;;;13.95;73.34;100979.59;10459816;28;20044;-71
2023/05/04 03:18:58;;;;;;;8.15;4.57;;;;;;;15.07;71.45;101068.28;10454446;28;20045;-69
2023/05/04 03:23:58;;;;;;;10.23;4.40;;;;;;;15.18;70.27;101014.31;10458078;28;20501;-70
2023/05/04 03:28:59;;;;;;;8.65;4.93;;;;;;;15.88;68.16;101074.69;10470732;28;20064;-72
2023/05/04 03:34:00;;;;;;;7.03;4.20;;;;;;;15.96;67.05;101053.19;10499280;28;20036;-70
2023/05/04 03:39:01;;;;;;;8.23;4.35;;;;;;;15.89;66.09;101009.41;10499312;28;20040;-71
2023/05/04 03:44:02;;;;;;;14.20;5.00;;;;;;;16.86;65.55;101068.06;10485416;28;20037;-70
2023/05/04 03:49:02;;;;;;;6.45;4.13;;;;;;;16.82;63.26;101012.31;10467821;28;20055;-70
2023/05/04 03:54:03;;;;;;;6.97;3.75;;;;;;;17.39;61.28;101053.44;10457553;28;20056;-70
2023/05/04 03:59:04;;;;;;;7.75;3.45;;;;;;;17.82;59.28;101077.53;10457150;28;20116;-69
2023/05/04 04:04:05;;;;;;;4.80;2.97;;;;;;;17.96;58.27;101065.81;10456293;28;20051;-69
2023/05/04 04:09:06;;;;;;;8.82;3.60;;;;;;;17.91;57.01;101012.66;10451637;28;20122;-68
2023/05/04 04:14:07;;;;;;;6.07;2.70;;;;;;;18.36;55.37;101026.47;10455287;28;20114;-73
2023/05/04 04:19:08;;;;;;;6.00;3.45;;;;;;;18.32;53.89;101086.25;10454588;28;20488;-70
2023/05/04 04:24:08;;;;;;;7.30;3.58;;;;;;;17.90;54.28;101015.53;10454672;28;20041;-68
2023/05/04 04:29:09;;;;;;;7.22;3.15;;;;;;;18.61;53.87;101088.63;10453463;28;20060;-67
2023/05/04 04:34:10;;;;;;;7.43;3.50;;;;;;;18.51;53.25;101025.47;10455665;28;20067;-68
2023/05/04 04:39:11;;;;;;;5.85;2.85;;;;;;;18.52;53.08;101016.34;10455248;28;20033;-69
2023/05/04 04:44:11;;;;;;;8.10;3.15;;;;;;;18.25;52.33;101025.19;10453613;28;20045;-71
2023/05/04 04:49:12;;;;;;;5.55;3.33;;;;;;;18.09;52.56;101087.38;10454007;28;20037;-71
2023/05/04 04:54:13;;;;;;;10.63;3.05;;;;;;;17.64;52.63;101025.09;10481604;28;20040;-71
2023/05/04 04:59:14;;;;;;;5.85;3.05;;;;;;;18.06;52.97;101090.47;10462014;28;20566;-70
2023/05/04 05:04:16;;;;;;;5.30;2.83;;;;;;;17.84;53.47;101080.84;10454502;28;20037;-69
2023/05/04 05:09:17;;;;;;;6.25;2.88;;;;;;;17.40;53.95;101007.56;10454138;28;20041;-70
2023/05/04 05:14:17;;;;;;;4.40;2.78;;;;;;;17.78;53.61;101020.66;10454498;28;20052;-69
2023/05/04 05:19:18;;;;;;;5.43;3.08;;;;;;;18.10;53.94;101075.63;10454740;28;20162;-69
2023/05/04 05:24:19;;;;;;;4.35;2.67;;;;;;;18.22;53.64;101073.19;10454253;28;20048;-70
2023/05/04 05:29:21;;;;;;;13.77;3.67;;;;;;;17.80;53.79;100983.69;10454598;28;20412;-71
2023/05/04 05:34:21;;;;;;;7.35;3.00;;;;;;;18.53;53.84;101059.22;10454383;28;20135;-70
2023/05/04 05:39:22;;;;;;;5.95;2.20;;;;;;;18.56;52.51;101068.75;10454318;28;20619;-70
2023/05/04 05:44:23;;;;;;;4.93;1.90;;;;;;;18.61;51.33;101064.41;10454852;28;20073;-70
2023/05/04 05:49:24;;;;;;;4.20;1.60;;;;;;;18.54;50.50;101044.72;10453376;28;20120;-70
2023/05/04 05:54:25;;;;;;;10.02;1.90;;;;;;;18.90;50.14;101065.94;10453279;28;20492;-70
2023/05/04 05:59:26;;;;;;;4.93;1.60;;;;;;;19.15;49.08;101068.03;10455175;28;20072;-71
2023/05/04 06:04:26;;;;;;;3.15;1.60;;;;;;;19.17;48.43;101071.34;10461521;28;20037;-69
2023/05/04 06:09:27;;;;;;;5.13;1.50;;;;;;;19.15;48.24;101051.88;10461342;28;20045;-70
2023/05/04 06:14:28;;;;;;;3.65;1.40;;;;;;;19.25;48.02;101056.84;10460688;28;20119;-70
2023/05/04 06:19:29;;;;;;;5.80;1.95;;;;;;;19.43;47.95;101072.38;10460607;28;20048;-70
2023/05/04 06:24:31;;;;;;;6.90;1.48;;;;;;;19.57;47.23;101068.66;10461781;28;20094;-70
2023/05/04 06:29:32;;;;;;;6.47;1.73;;;;;;;19.59;47.09;101045.84;10460986;28;20061;-71
2023/05/04 06:34:32;;;;;;;2.38;1.40;;;;;;;19.86;46.60;101042.25;10460459;28;20095;-70
2023/05/04 06:39:33;;;;;;;6.80;1.60;;;;;;;20.15;46.10;101047.13;10460423;28;20045;-70
2023/05/04 06:44:37;;;;;;;2.67;1.60;;;;;;;20.17;46.12;101041.53;10460477;28;20045;-70
2023/05/04 06:49:38;;;;;;;4.00;1.73;;;;;;;20.54;45.25;101055.28;10459982;28;20412;-70
2023/05/04 06:54:39;;;;;;;3.83;1.40;;;;;;;20.77;44.32;101046.63;10459709;28;20041;-69
2023/05/04 06:59:40;;;;;;;2.55;1.45;;;;;;;20.45;43.82;100974.53;10459615;28;20071;-70
2023/05/04 07:04:40;;;;;;;2.05;1.13;;;;;;;20.40;43.59;101047.25;10459397;28;20087;-70
2023/05/04 07:09:42;;;;;;;2.97;1.08;;;;;;;20.35;43.05;101044.34;10458353;28;20496;-71
2023/05/04 07:14:43;;;;;;;5.20;1.23;;;;;;;19.74;43.28;100964.75;10458469;28;20428;-70
2023/05/04 07:19:44;;;;;;;3.95;1.35;;;;;;;20.23;44.11;101033.41;10458048;28;20033;-70
2023/05/04 07:24:45;;;;;;;2.45;0.93;;;;;;;20.00;43.80;101009.63;10458612;28;20408;-70
2023/05/04 07:29:46;;;;;;;3.83;1.17;;;;;;;20.06;43.21;101033.06;10459172;28;20112;-69
2023/05/04 07:34:46;;;;;;;4.32;0.90;;;;;;;19.78;42.92;100948.97;10458301;28;20037;-70
2023/05/04 07:39:47;;;;;;;2.97;1.10;;;;;;;20.38;42.33;101027.72;10457980;28;20041;-70
2023/05/04 07:44:48;;;;;;;4.10;1.00;;;;;;;20.46;41.54;101023.94;10457224;28;20037;-70
2023/05/04 07:49:49;;;;;;;1.90;0.85;;;;;;;20.40;40.29;101012.16;10457974;28;20527;-70
2023/05/04 07:54:53;;;;;;;3.17;1.10;;;;;;;21.01;40.56;101026.09;10456859;28;20076;-70
2023/05/04 07:59:54;;;;;;;3.30;1.20;;;;;;;21.07;39.52;100968.50;10456880;28;20063;-71
2023/05/04 08:04:55;;;;;;;5.57;1.23;;;;;;;21.63;39.79;101011.59;10462385;28;20494;-68
2023/05/04 08:09:56;;;;;;;2.67;1.10;;;;;;;21.25;39.12;100936.09;10456990;28;20044;-69
2023/05/04 08:14:57;;;;;;;3.50;1.00;;;;;;;21.79;38.60;101012.03;10457109;28;20503;-70
2023/05/04 08:19:58;;;;;;;5.72;1.30;;;;;;;21.91;38.80;100998.59;10455797;28;20060;-71
2023/05/04 08:24:59;;;;;;;3.42;1.10;;;;;;;21.91;38.44;100995.88;10455577;28;20520;-69
2023/05/04 08:30:00;;;;;;;2.92;1.02;;;;;;;21.96;38.27;100971.69;10456241;28;20061;-70
2023/05/04 08:35:01;;;;;;;2.63;1.10;;;;;;;22.25;38.19;100995.25;10455682;28;20045;-70
2023/05/04 08:40:03;;;;;;;2.88;0.95;;;;;;;22.30;37.32;100971.03;10455626;28;20041;-69
2023/05/04 08:45:05;;;;;;;3.17;1.27;;;;;;;22.62;37.30;100968.06;10455551;28;20044;-70
2023/05/04 08:50:06;;;;;;;4.20;1.23;;;;;;;22.50;37.40;100932.84;10455302;28;20400;-69
2023/05/04 08:55:11;;;;;;;2.97;1.10;;;;;;;22.28;37.31;100893.81;10455536;28;20043;-69
2023/05/04 09:00:15;;;;;;;3.50;1.33;;;;;;;22.70;36.26;100956.03;10455498;28;20051;-70
2023/05/04 09:05:17;;;;;;;4.20;0.93;;;;;;;22.65;36.50;100945.94;10454306;28;20043;-70
2023/05/04 09:10:18;;;;;;;2.45;1.10;;;;;;;22.02;36.80;100866.09;10454129;28;20072;-71
2023/05/04 09:15:20;;;;;;;2.97;0.90;;;;;;;22.45;35.92;100881.25;10454024;28;20040;-70
2023/05/04 09:20:21;;;;;;;2.53;1.00;;;;;;;23.22;35.28;100940.78;10454862;28;20400;-69
2023/05/04 09:25:22;;;;;;;2.95;1.20;;;;;;;22.90;35.12;100864.44;10454378;28;20119;-68
2023/05/04 09:30:23;;;;;;;3.15;1.08;;;;;;;23.25;34.97;100920.53;10453605;28;20123;-69
2023/05/04 09:35:28;;;;;;;3.17;1.00;;;;;;;22.97;34.43;100891.44;10459922;28;20136;-70
2023/05/04 09:40:39;;;;;;;2.75;1.08;;;;;;;23.19;34.61;100891.66;10462211;28;20037;-69
2023/05/04 09:45:42;;;;;;;3.15;1.00;;;;;;;23.47;34.23;100904.44;10462031;28;20076;-70
2023/05/04 09:50:48;;;;;;;2.53;1.00;;;;;;;23.20;33.86;100833.66;10462064;28;20512;-70
2023/05/04 09:55:58;;;;;;;6.10;1.13;;;;;;;23.44;33.35;100902.22;10462082;28;20404;-69
2023/05/04 10:01:02;;;;;;;3.75;1.42;;;;;;;23.07;33.87;100893.56;10461314;28;20114;-70
2023/05/04 10:06:04;;;;;;;3.35;1.00;;;;;;;22.65;34.22;100810.53;10461732;28;20511;-70
2023/05/04 10:11:07;;;;;;;2.47;1.05;;;;;;;23.30;33.81;100881.84;10462089;28;20573;-70
2023/05/04 10:16:08;;;;;;;2.28;1.10;;;;;;;23.46;33.79;100875.69;10476717;28;20073;-69
2023/05/04 10:21:41;;;;;;;2.30;1.05;;;;;;;23.32;33.70;100812.78;10460354;28;20069;-71
2023/05/04 10:26:54;;;;;;;3.13;1.10;;;;;;;23.05;33.44;100796.25;10461013;28;20101;-70
2023/05/04 10:31:56;;;;;;;3.00;0.90;;;;;;;23.48;33.55;100865.41;10460890;28;20041;-71
2023/05/04 10:36:58;;;;;;;4.18;1.00;;;;;;;23.35;34.14;100833.16;10460520;28;20382;-70
2023/05/04 10:42:03;;;;;;;2.63;0.98;;;;;;;23.46;33.51;100859.41;10459781;28;20043;-70
2023/05/04 10:47:06;;;;;;;8.18;1.10;;;;;;;23.64;34.09;100844.84;10458864;28;20036;-69
2023/05/04 10:52:08;;;;;;;4.30;1.10;;;;;;;23.86;33.70;100853.13;10460050;28;20041;-70
2023/05/04 10:57:16;;;;;;;4.63;1.20;;;;;;;23.74;33.50;100820.66;10459628;28;20045;-70
2023/05/04 11:02:27;;;;;;;3.40;0.90;;;;;;;23.79;33.88;100838.91;10459832;28;20118;-69
2023/05/04 11:07:37;;;;;;;6.18;1.10;;;;;;;24.05;33.03;100832.88;10459327;28;20044;-69
2023/05/04 11:12:37;;;;;;;2.45;1.00;;;;;;;24.22;33.60;100822.00;10459145;28;20040;-69
2023/05/04 11:17:51;;;;;;;2.58;0.90;;;;;;;23.98;33.07;100815.91;10458916;28;20055;-70
2023/05/04 11:22:53;;;;;;;4.07;0.80;;;;;;;23.74;33.28;100819.81;10459238;28;20037;-69
2023/05/04 11:27:54;;;;;;;1.85;0.80;;;;;;;23.81;33.11;100813.19;10458693;28;20057;-70
2023/05/04 11:32:56;;;;;;;6.95;0.95;;;;;;;23.92;33.20;100800.59;10458810;28;20123;-70
2023/05/04 11:37:56;;;;;;;3.83;1.00;;;;;;;23.72;33.45;100714.25;10457526;28;20049;-72
2023/05/04 11:42:59;;;;;;;2.08;1.02;;;;;;;24.23;33.25;100809.25;10458172;28;20033;-69
2023/05/04 11:48:01;;;;;;;4.05;1.00;;;;;;;23.96;33.62;100774.66;10457294;28;20052;-70
2023/05/04 11:53:09;;;;;;;2.03;0.80;;;;;;;24.12;33.10;100786.56;10457025;28;20041;-70
2023/05/04 11:58:10;;;;;;;3.33;1.10;;;;;;;24.19;33.20;100764.69;10456080;28;20048;-70
2023/05/04 12:03:14;;;;;;;12.02;1.75;;;;;;;24.32;32.81;100786.88;10457381;28;20048;-70
2023/05/04 12:08:30;;;;;;;4.57;1.33;;;;;;;24.41;32.84;100768.28;10479660;28;20048;-69
2023/05/04 12:13:31;;;;;;;5.38;0.77;;;;;;;24.40;32.39;100768.50;10495289;28;20039;-73
2023/05/04 12:18:32;;;;;;;4.70;1.20;;;;;;;24.49;32.75;100751.56;10497424;28;20036;-71
2023/05/04 12:23:32;;;;;;;6.80;1.42;;;;;;;24.56;31.92;100754.94;10497565;28;20172;-70
2023/05/04 12:28:34;;;;;;;3.33;0.90;;;;;;;24.52;31.88;100752.97;10483171;28;20068;-70
2023/05/04 12:33:35;;;;;;;4.28;0.93;;;;;;;24.46;30.99;100734.97;10462566;28;20048;-70
2023/05/04 12:38:36;;;;;;;6.57;1.55;;;;;;;24.40;31.14;100730.50;10454126;28;20606;-70
2023/05/04 12:43:37;;;;;;;2.67;1.00;;;;;;;24.36;30.30;100719.31;10460736;28;20052;-70
2023/05/04 12:48:39;;;;;;;2.70;0.60;;;;;;;24.40;30.42;100731.31;10455033;28;20048;-70
2023/05/04 12:53:40;;;;;;;2.67;0.80;;;;;;;24.10;31.06;100639.41;10454727;28;20397;-70
2023/05/04 12:58:41;;;;;;;5.78;1.30;;;;;;;24.68;30.50;100710.53;10454641;28;20123;-70
2023/05/04 13:03:42;;;;;;;3.25;1.00;;;;;;;24.61;30.43;100729.72;10467110;28;20040;-71
2023/05/04 13:08:45;;;;;;;3.67;1.10;;;;;;;24.44;30.61;100718.94;10494471;28;20045;-71
2023/05/04 13:13:46;;;;;;;3.42;1.10;;;;;;;23.92;30.65;100665.75;10495556;28;20415;-70
2023/05/04 13:18:47;;;;;;;3.42;0.80;;;;;;;24.31;30.90;100703.78;10492020;28;20119;-69
2023/05/04 13:23:48;;;;;;;3.38;0.88;;;;;;;24.45;30.90;100717.03;10494909;28;20044;-70
2023/05/04 13:28:50;;;;;;;2.15;0.90;;;;;;;24.35;31.21;100687.78;10495782;28;20057;-71
2023/05/04 13:33:52;;;;;;;;;;;;;;;24.60;31.45;100704.47;10495711;28;20111;-71
2023/05/04 13:38:53;;;;;;;3.90;0.90;;;;;;;24.07;31.16;100681.44;10495908;28;19925;-70
2023/05/04 13:43:54;;;;;;;4.68;0.98;;;;;;;24.09;31.24;100692.88;10494970;28;20098;-71
2023/05/04 13:48:54;;;;;;;1.63;1.00;;;;;;;23.60;31.58;100618.56;10495262;28;20043;-71
2023/05/04 13:53:55;;;;;;;5.40;0.90;;;;;;;23.45;31.97;100605.59;10495731;28;20049;-70
2023/05/04 13:58:56;;;;;;;5.93;1.05;;;;;;;23.59;32.13;100655.72;10495013;28;20041;-70
2023/05/04 14:03:57;;;;;;;3.60;1.10;;;;;;;23.61;32.85;100682.63;10494548;28;20045;-72
2023/05/04 14:08:58;;;;;;;3.85;0.90;;;;;;;23.16;32.72;100602.97;10495716;28;20082;-70
2023/05/04 14:13:59;;;;;;;7.97;0.90;;;;;;;23.21;32.26;100611.19;10495079;28;20051;-72
2023/05/04 14:18:59;;;;;;;3.22;1.00;;;;;;;23.48;32.94;100675.59;10495097;28;20036;-71
2023/05/04 14:24:00;;;;;;;3.17;1.00;;;;;;;23.39;32.83;100671.66;10500814;28;20481;-71
2023/05/04 14:29:02;;;;;;;6.60;1.45;;;;;;;22.79;32.89;100589.00;10501473;28;20088;-71
2023/05/04 14:34:03;;;;;;;8.20;1.13;;;;;;;22.78;32.65;100617.97;10501445;28;20048;-70
2023/05/04 14:39:04;;;;;;;3.95;0.95;;;;;;;23.00;32.72;100676.91;10495162;28;20032;-71
2023/05/04 14:44:04;;;;;;;14.10;1.65;;;;;;;22.30;33.35;100585.88;10502230;28;20454;-71
2023/05/04 14:49:06;;;;;;;7.95;1.17;;;;;;;22.64;33.32;100654.50;10501139;28;20046;-73
2023/05/04 14:54:07;;;;;;;3.35;0.90;;;;;;;22.62;33.35;100672.09;10482838;28;20039;-71
2023/05/04 14:59:08;;;;;;;4.20;1.27;;;;;;;22.44;33.91;100657.66;10460049;28;20041;-72
2023/05/04 15:04:09;;;;;;;4.88;1.50;;;;;;;22.21;34.02;100644.97;10459446;28;20037;-72
2023/05/04 15:09:09;;;;;;;7.22;1.00;;;;;;;22.04;34.75;100641.31;10459305;28;20041;-72
2023/05/04 15:14:10;;;;;;;7.35;0.93;;;;;;;21.07;34.99;100514.69;10471336;28;20126;-71
2023/05/04 15:19:11;;;;;;;3.08;0.80;;;;;;;21.30;35.93;100590.38;10470103;28;20048;-71
2023/05/04 15:24:12;;;;;;;3.75;0.75;;;;;;;21.62;36.73;100674.69;10458630;28;20040;-71
2023/05/04 15:29:12;;;;;;;5.32;1.00;;;;;;;21.34;37.72;100671.78;10458568;28;20526;-71
2023/05/04 15:34:13;;;;;;;3.88;1.13;;;;;;;21.13;38.09;100684.75;10458458;28;20467;-72
2023/05/04 15:39:14;;;;;;;6.95;1.17;;;;;;;20.66;38.87;100651.31;10458271;28;20044;-71
2023/05/04 15:44:15;;;;;;;6.00;1.20;;;;;;;20.64;39.65;100675.00;10458020;28;20412;-71
2023/05/04 15:49:16;;;;;;;6.47;2.53;;;;;;;20.34;40.24;100677.59;10458493;28;20045;-71
2023/05/04 15:54:16;;;;;;;5.13;1.52;;;;;;;20.11;40.96;100691.78;10457414;28;20044;-71
2023/05/04 15:59:17;;;;;;;5.03;1.27;;;;;;;19.89;41.30;100696.72;10457421;28;20044;-71
2023/05/04 16:04:18;;;;;;;3.70;1.10;;;;;;;19.15;41.83;100613.75;10477129;28;20035;-69
2023/05/04 16:09:19;;;;;;;10.23;1.33;;;;;;;19.30;42.13;100685.34;10496738;28;20056;-68
2023/05/04 16:14:20;;;;;;;20.92;10.15;;;;;;;19.15;42.41;100686.44;10474204;28;20044;-69
2023/05/04 16:19:21;;;;;;;17.77;7.00;;;;;;;18.91;42.80;100674.56;10474402;28;20052;-68
2023/05/04 16:24:22;;;;;;;8.07;3.70;;;;;;;18.81;43.38;100686.81;10476159;28;20044;-68
2023/05/04 16:29:23;;;;;;;4.55;1.40;;;;;;;18.73;43.30;100697.81;10455462;28;20130;-69
2023/05/04 16:34:24;;;;;;;5.68;1.35;;;;;;;18.51;44.10;100716.91;10472625;28;20049;-69
2023/05/04 16:39:33;;;;;;;6.45;2.45;;;;;;;18.34;45.00;100713.03;10483087;28;20484;-69
2023/05/04 16:44:34;;;;;;;42.47;5.47;;;;;;;18.14;45.19;100721.13;10436444;28;20065;-69
2023/05/04 16:49:34;;;;;;;30.13;11.57;;;;;;;17.90;45.69;100718.03;10441358;28;20044;-69
2023/05/04 16:54:35;;;;;;;20.25;3.00;;;;;;;17.63;46.03;100706.41;10433226;28;20116;-68
2023/05/04 16:59:36;;;;;;;13.45;4.13;;;;;;;17.64;46.41;100732.22;10430902;28;20099;-68
2023/05/04 17:04:37;;;;;;;9.40;2.95;;;;;;;17.47;47.23;100714.84;10437426;28;20032;-69
2023/05/04 17:09:38;;;;;;;10.98;4.00;;;;;;;17.20;47.75;100706.75;10430726;28;20119;-70
2023/05/04 17:14:39;;;;;;;11.68;3.70;;;;;;;16.73;48.29;100649.41;10428224;28;20123;-69
2023/05/04 17:19:40;;;;;;;13.57;4.13;;;;;;;17.02;48.89;100711.84;10430972;28;20044;-70
2023/05/04 17:24:41;;;;;;;13.63;4.97;;;;;;;16.47;49.54;100641.25;10435600;28;20059;-70
2023/05/04 17:29:42;;;;;;;20.40;9.88;;;;;;;16.87;50.06;100720.91;10428321;28;20057;-71
2023/05/04 17:34:43;;;;;;;21.27;9.80;;;;;;;16.80;50.35;100719.19;10428428;28;20049;-70
2023/05/04 17:39:45;;;;;;;37.88;11.88;;;;;;;16.69;51.00;100715.19;10435555;28;20463;-70
2023/05/04 17:44:46;;;;;;;8.63;4.15;;;;;;;16.50;51.75;100703.34;10454180;28;20504;-70
2023/05/04 17:49:47;;;;;;;6.03;2.35;;;;;;;16.37;52.33;100708.63;10453633;28;20048;-70
2023/05/04 17:54:48;;;;;;;8.52;2.85;;;;;;;16.37;52.50;100717.50;10455915;28;20119;-71
2023/05/04 17:59:49;;;;;;;4.63;1.48;;;;;;;15.89;52.75;100647.72;10456664;28;20041;-70
2023/05/04 18:04:50;;;;;;;3.17;1.10;;;;;;;16.20;52.93;100711.59;10441404;28;20045;-70
2023/05/04 18:09:50;;;;;;;7.05;1.33;;;;;;;16.14;53.26;100712.41;10449850;28;20064;-69
2023/05/04 18:14:52;;;;;;;4.03;1.35;;;;;;;16.04;53.73;100711.91;10419894;28;20037;-70
2023/05/04 18:19:53;;;;;;;5.93;1.00;;;;;;;15.91;54.05;100706.44;10419439;28;20412;-69
2023/05/04 18:24:54;;;;;;;8.02;2.17;;;;;;;15.86;53.98;100701.69;10418978;28;20184;-70
2023/05/04 18:29:55;;;;;;;4.43;1.95;;;;;;;15.79;54.10;100690.06;10419180;28;20053;-69
2023/05/04 18:34:56;;;;;;;4.53;1.85;;;;;;;15.78;54.16;100699.13;10419587;28;20416;-70
2023/05/04 18:39:57;;;;;;;3.35;1.30;;;;;;;15.66;54.25;100679.22;10419244;28;20041;-70
2023/05/04 18:44:58;;;;;;;4.07;1.10;;;;;;;15.56;54.48;100681.41;10418522;28;20417;-69
2023/05/04 18:50:00;;;;;;;5.28;0.90;;;;;;;15.51;54.88;100671.25;10420272;28;20095;-69
2023/05/04 18:55:01;;;;;;;2.08;0.73;;;;;;;15.04;55.18;100600.41;10460764;28;20045;-69
2023/05/04 19:00:04;;;;;;;3.83;0.77;;;;;;;15.41;55.32;100687.66;10419471;28;20045;-70
2023/05/04 19:05:05;;;;;;;;;;;;;;;15.58;54.97;100684.69;10418350;28;20033;-69
2023/05/04 19:10:07;;;;;;;3.58;0.70;;;;;;;15.20;55.73;100677.78;10440610;28;19917;-69
2023/05/04 19:15:08;;;;;;;4.28;0.88;;;;;;;15.02;57.06;100688.06;10458998;28;20045;-69
2023/05/04 19:20:09;;;;;;;3.70;0.80;;;;;;;14.98;57.49;100684.91;10431277;28;20110;-69
2023/05/04 19:25:10;;;;;;;9.52;1.00;;;;;;;14.90;57.72;100679.72;10417537;28;20068;-69
2023/05/04 19:30:11;;;;;;;5.00;0.98;;;;;;;14.76;58.57;100683.22;10417837;28;20069;-70
2023/05/04 19:35:15;;;;;;;4.47;1.42;;;;;;;14.10;59.06;100603.81;10416485;28;20052;-70
2023/05/04 19:40:17;;;;;;;9.57;1.83;;;;;;;13.97;59.20;100592.09;10417952;28;20041;-70
2023/05/04 19:45:17;;;;;;;5.13;1.98;;;;;;;13.89;59.66;100598.38;10417236;28;20414;-70
2023/05/04 19:50:18;;;;;;;7.10;1.70;;;;;;;13.66;60.31;100588.56;10416160;28;20033;-69
2023/05/04 19:55:20;;;;;;;5.18;1.42;;;;;;;13.89;60.98;100659.78;10416258;28;20045;-69
2023/05/04 20:00:21;;;;;;;6.85;1.73;;;;;;;13.91;60.94;100685.31;10416132;28;20061;-69
2023/05/04 20:05:22;;;;;;;6.53;1.55;;;;;;;13.75;61.67;100690.78;10416339;28;20049;-70
2023/05/04 20:10:23;;;;;;;7.32;1.70;;;;;;;13.57;61.90;100691.09;10415013;28;20042;-69
2023/05/04 20:15:24;;;;;;;6.90;2.08;;;;;;;13.34;62.81;100683.13;10414986;28;20052;-70
2023/05/04 20:20:25;;;;;;;6.72;2.00;;;;;;;13.27;63.55;100694.66;10413933;28;20076;-70
2023/05/04 20:25:26;;;;;;;5.28;2.00;;;;;;;12.64;64.05;100604.00;10415415;28;20052;-70
2023/05/04 20:30:27;;;;;;;11.50;2.55;;;;;;;13.03;64.74;100691.94;10415297;28;20058;-69
2023/05/04 20:35:28;;;;;;;5.82;2.30;;;;;;;12.94;65.19;100700.97;10414233;28;20115;-70
2023/05/04 20:40:29;;;;;;;8.57;3.22;;;;;;;12.81;65.34;100691.91;10417673;28;20179;-70
2023/05/04 20:45:29;;;;;;;9.30;2.60;;;;;;;12.72;66.13;100705.25;10455900;28;20051;-70
2023/05/04 20:50:30;;;;;;;10.07;2.33;;;;;;;12.53;66.45;100700.31;10455117;28;20049;-69
2023/05/04 20:55:31;;;;;;;11.48;2.33;;;;;;;12.41;67.71;100693.72;10455315;28;20094;-70
2023/05/04 21:00:32;;;;;;;6.38;2.00;;;;;;;12.32;67.67;100690.22;10454313;28;20041;-70
2023/05/04 21:05:36;;;;;;;13.45;2.90;;;;;;;12.31;68.37;100681.41;10454741;28;20128;-70
2023/05/04 21:10:38;;;;;;;8.18;3.10;;;;;;;12.24;67.88;100684.94;10455131;28;20155;-70
2023/05/04 21:15:38;;;;;;;4.25;1.90;;;;;;;11.63;68.24;100599.31;10454575;28;20045;-70
2023/05/04 21:20:40;;;;;;;5.28;1.90;;;;;;;11.93;68.78;100675.00;10454030;28;20752;-69
2023/05/04 21:25:41;;;;;;;5.15;1.92;;;;;;;11.91;69.25;100674.34;10454573;28;20036;-70
2023/05/04 21:30:42;;;;;;;7.22;2.08;;;;;;;11.81;69.60;100674.47;10452405;28;20053;-70
2023/05/04 21:35:43;;;;;;;4.22;1.98;;;;;;;11.69;69.81;100664.34;10453620;28;20512;-69
2023/05/04 21:40:43;;;;;;;5.35;2.17;;;;;;;11.61;70.03;100652.72;10454400;28;20053;-70
2023/05/04 21:45:44;;;;;;;6.85;1.60;;;;;;;11.46;70.25;100640.25;10453612;28;20459;-69
2023/05/04 21:50:45;;;;;;;8.30;2.60;;;;;;;11.40;70.98;100650.56;10454172;28;20056;-70
2023/05/04 21:55:46;;;;;;;3.33;1.75;;;;;;;11.30;71.44;100633.91;10453143;28;20036;-71
2023/05/04 22:00:46;;;;;;;6.10;1.70;;;;;;;10.84;71.75;100567.09;10424709;28;20497;-70
2023/05/04 22:05:56;;;;;;;5.30;1.67;;;;;;;11.25;74.13;100662.00;10412390;28;20045;-69
2023/05/04 22:11:00;;;;;;;7.45;1.60;;;;;;;10.92;72.27;100622.09;10412164;28;20041;-69
2023/05/04 22:16:01;;;;;;;8.48;1.58;;;;;;;10.65;72.70;100575.34;10421910;28;20409;-69
2023/05/04 22:21:01;;;;;;;3.65;1.40;;;;;;;10.87;73.05;100619.09;10411456;28;20049;-69
2023/05/04 22:26:02;;;;;;;6.13;1.63;;;;;;;10.65;73.33;100624.03;10411407;28;20065;-69
2023/05/04 22:31:03;;;;;;;7.32;1.80;;;;;;;10.38;73.91;100574.63;10412112;28;20053;-69
2023/05/04 22:36:04;;;;;;;10.13;1.67;;;;;;;10.72;74.52;100646.28;10412061;28;20136;-69
2023/05/04 22:41:05;;;;;;;7.22;1.85;;;;;;;9.62;75.71;100489.69;10414159;28;20037;-69
2023/05/04 22:46:06;;;;;;;5.63;1.92;;;;;;;10.46;75.79;100609.16;10418483;28;20041;-69
2023/05/04 22:51:07;;;;;;;5.45;1.42;;;;;;;10.60;76.23;100620.19;10418953;28;20049;-69
2023/05/04 22:56:08;;;;;;;3.15;1.77;;;;;;;10.54;75.70;100603.06;10418079;28;20041;-69
2023/05/04 23:01:09;;;;;;;6.00;1.65;;;;;;;10.70;76.13;100627.00;10419447;28;20045;-69
2023/05/04 23:06:10;;;;;;;3.80;1.80;;;;;;;10.04;76.32;100524.19;10418894;28;20452;-69